createdAt,value
2023-03-19T00:09:58.548Z,-0.36
2023-03-19T00:20:01.906Z,-0.47
2023-03-19T00:30:07.376Z,-0.49
2023-03-19T00:40:12.058Z,-0.58
2023-03-19T00:50:16.171Z,-0.76
2023-03-19T01:00:20.794Z,-0.90
2023-03-19T01:10:25.057Z,-1.12
2023-03-19T01:20:28.184Z,-1.22
2023-03-19T01:30:31.745Z,-1.15
2023-03-19T01:40:49.486Z,-1.30
2023-03-19T01:50:55.547Z,-1.49
2023-03-19T02:01:03.462Z,-1.57
2023-03-19T02:11:09.635Z,-1.72
2023-03-19T02:21:18.157Z,-1.70
2023-03-19T02:31:23.316Z,-1.70
2023-03-19T02:41:27.862Z,-1.91
2023-03-19T02:51:31.502Z,-2.08
2023-03-19T03:01:35.674Z,-2.19
2023-03-19T03:11:41.260Z,-2.24
2023-03-19T03:21:45.425Z,-2.26
2023-03-19T03:31:48.546Z,-2.29
2023-03-19T03:41:52.702Z,-2.31
2023-03-19T03:51:56.271Z,-2.44
2023-03-19T04:01:59.599Z,-2.52
2023-03-19T04:12:05.131Z,-2.54
2023-03-19T04:22:08.716Z,-2.71
2023-03-19T04:32:11.919Z,-2.75
2023-03-19T04:42:15.621Z,-2.81
2023-03-19T04:52:31.402Z,-2.81
2023-03-19T05:02:34.925Z,-2.90
2023-03-19T05:12:38.848Z,-2.92
2023-03-19T05:22:42.669Z,-2.81
2023-03-19T05:32:47.779Z,-2.64
2023-03-19T05:43:05.810Z,-2.35
2023-03-19T05:53:09.715Z,-2.01
2023-03-19T06:03:17.804Z,-1.64
2023-03-19T06:13:24.282Z,-1.25
2023-03-19T06:23:34.354Z,-0.85
2023-03-19T06:33:38.802Z,-0.30
2023-03-19T06:43:42.472Z,1.07
2023-03-19T06:53:45.627Z,2.97
2023-03-19T07:03:48.948Z,4.50
2023-03-19T07:13:52.749Z,5.79
2023-03-19T07:23:56.118Z,6.85
2023-03-19T07:33:59.164Z,7.69
2023-03-19T07:44:02.288Z,8.53
2023-03-19T07:54:05.465Z,8.98
2023-03-19T08:04:09.080Z,9.15
2023-03-19T08:14:12.309Z,9.32
2023-03-19T08:24:15.547Z,9.62
2023-03-19T08:34:18.577Z,9.85
2023-03-19T08:44:21.755Z,10.01
2023-03-19T08:54:24.835Z,10.40
2023-03-19T09:04:28.704Z,10.80
2023-03-19T09:14:31.944Z,11.23
2023-03-19T09:24:35.326Z,11.75
2023-03-19T09:34:40.093Z,12.22
2023-03-19T09:44:45.830Z,12.69
2023-03-19T09:54:53.984Z,12.93
2023-03-19T10:05:20.432Z,13.22
2023-03-19T10:15:32.516Z,13.61
2023-03-19T10:25:41.583Z,14.11
2023-03-19T10:35:48.890Z,14.52
2023-03-19T10:45:52.348Z,14.74
2023-03-19T10:56:03.650Z,14.98
2023-03-19T11:06:07.845Z,15.00
2023-03-19T11:16:11.522Z,15.03
2023-03-19T11:26:19.541Z,15.38
2023-03-19T11:36:54.686Z,15.68
2023-03-19T11:47:27.101Z,15.71
2023-03-19T11:58:09.882Z,15.88
2023-03-19T12:08:33.944Z,15.99
2023-03-19T12:18:37.375Z,16.07
2023-03-19T12:28:59.015Z,16.16
2023-03-19T12:39:10.688Z,16.11
2023-03-19T12:49:42.206Z,16.07
2023-03-19T12:59:59.061Z,16.18
2023-03-19T13:10:11.557Z,16.38
2023-03-19T13:20:47.131Z,16.46
2023-03-19T13:31:19.790Z,16.53
2023-03-19T13:41:35.095Z,16.58
2023-03-19T13:51:39.881Z,16.61
2023-03-19T14:01:47.723Z,16.61
2023-03-19T14:11:52.226Z,16.61
2023-03-19T14:21:56.003Z,16.64
2023-03-19T14:32:07.352Z,16.29
2023-03-19T14:42:29.622Z,16.11
2023-03-19T14:52:36.874Z,15.80
2023-03-19T15:02:44.562Z,15.38
2023-03-19T15:13:25.984Z,15.02
2023-03-19T15:23:31.256Z,14.78
2023-03-19T15:33:41.554Z,14.66
2023-03-19T15:43:47.527Z,14.38
2023-03-19T15:53:52.276Z,14.02
2023-03-19T16:03:57.944Z,13.67
2023-03-19T16:14:09.587Z,13.28
2023-03-19T16:24:31.424Z,12.68
2023-03-19T16:34:43.777Z,12.09
2023-03-19T16:44:47.860Z,11.29
2023-03-19T16:54:52.242Z,10.41
2023-03-19T17:04:56.543Z,9.77
2023-03-19T17:14:59.748Z,8.98
2023-03-19T17:25:02.856Z,8.29
2023-03-19T17:35:15.091Z,7.65
2023-03-19T17:45:25.301Z,7.10
2023-03-19T17:55:29.894Z,6.48
2023-03-19T18:05:33.059Z,5.83
2023-03-19T18:15:38.128Z,5.40
2023-03-19T18:25:41.288Z,5.02
2023-03-19T18:35:45.895Z,4.68
2023-03-19T18:45:52.985Z,4.39
2023-03-19T18:55:57.508Z,4.04
2023-03-19T19:06:00.689Z,3.71
2023-03-19T19:16:06.061Z,3.50
2023-03-19T19:26:22.210Z,3.31
2023-03-19T19:36:25.933Z,3.02
2023-03-19T19:46:31.885Z,2.85
2023-03-19T19:56:35.227Z,2.79
2023-03-19T20:06:38.785Z,2.77
2023-03-19T20:16:42.176Z,2.81
2023-03-19T20:26:45.776Z,2.66
2023-03-19T20:36:48.896Z,2.52
2023-03-19T20:46:52.604Z,2.52
2023-03-19T20:56:56.411Z,2.52
2023-03-19T21:06:59.630Z,2.50
2023-03-19T21:17:03.854Z,2.51
2023-03-19T21:27:17.976Z,2.42
2023-03-19T21:37:21.319Z,2.24
2023-03-19T21:47:26.135Z,2.07
2023-03-19T21:57:29.263Z,1.90
2023-03-19T22:07:32.519Z,1.81
2023-03-19T22:17:35.773Z,1.69
2023-03-19T22:27:41.133Z,1.58
2023-03-19T22:37:44.952Z,1.54
2023-03-19T22:47:48.212Z,1.31
2023-03-19T22:57:51.723Z,1.30
2023-03-19T23:07:55.916Z,1.26
2023-03-19T23:18:00.187Z,1.29
2023-03-19T23:28:03.261Z,1.31
2023-03-19T23:38:07.120Z,1.39
2023-03-19T23:48:21.954Z,1.37
2023-03-19T23:58:40.171Z,1.36
